Burgas Airport

Airport
ICAO code: 
LBBG
IATA Code: 
BOJ
Summary
ICAO Region: 
EUR
Territory: 
Location: 
Sarafovo, Northern Thrace
Serving: 
Burgas
Elevation: 
135 ft
Coordinates: 
Aerial View: 
42° 34' 10.488" N, 27° 30' 54.864" E
Metar
Observation
LBBG 260800Z 25009KT CAVOK 24/17 Q1017 NOSIG
Station
Burgas
Date/Time
2022-05-26 08:00:00
Wind direction
250°
Wind speed
09 kts
Lowest cloud amount
clouds and visibility OK
Temperature
24°C
Dew point
17°C
Humidity
64%
QNH
1017 hPa
Weather condition
n/a

Burgas Airport is an international airport in southeast Bulgaria and the second largest airport in the country. The airport is located near the northern neighbourhood of Sarafovo 10 kilometres from the city centre of Burgas.

Climatology

Humid subtropical climate (Köppen climate classification Cfa)

Runways

Designator Length Width Surface Rops
4/22 3200 45 CON Yes/Yes
Airport map: 
Aerial View: 

SKYbrary Partners:

Safety knowledge contributed by: